Mazagon R — EAII — position and weather

sailwx.info

Track history (hours):
 
Tides and Currents Weather Stations Pressure Air Temp Water Temp Dewpoint Dewpoint Depression Visibility Wind Speed Wind Dir Waves Ship Positions

Mazagon R

Last reported at 2018-Jan-18 21:34 UTC. Time now 2018-Jan-19 13:34 UTC.
Position S 05°11' E 011°24'.

Length 34 m.

Type: Fishing. MMSI: 224300000.

Date/timePositionNaut miles runAvg speedWind from/ knotsBaromVisibWave heightAir tempDewpointWater temp
2018-Jan-18 21:34S 05°11' E 011°24'0 3.0
2018-Jan-18 21:29S 05°11' E 011°24'1 3.0
2018-Jan-18 21:00S 05°13' E 011°25'1 2.8
2018-Jan-18 20:30S 05°14' E 011°25'2 3.8
2018-Jan-18 19:58S 05°16' E 011°26'0 0.9
2018-Jan-18 19:30S 05°16' E 011°26'0 1.0
2018-Jan-18 19:00S 05°15' E 011°25'1 2.9
2018-Jan-18 18:30S 05°14' E 011°25'1 2.9
2018-Jan-18 17:59S 05°12' E 011°24'1 2.9
2018-Jan-18 17:29S 05°11' E 011°24'1 2.9
2018-Jan-18 16:58S 05°10' E 011°23'1 2.9
2018-Jan-18 16:30S 05°08' E 011°23'2 3.0
2018-Jan-18 15:47S 05°07' E 011°22'  
2018-Jan-11 21:16S 05°16' E 011°26'0 0.4
2018-Jan-11 21:00S 05°16' E 011°26'0 0.1
2018-Jan-11 20:30S 05°16' E 011°26'1 2.9
2018-Jan-11 20:00S 05°15' E 011°26'1 2.9
2018-Jan-11 19:29S 05°14' E 011°25'1 2.9
2018-Jan-11 19:00S 05°12' E 011°24'1 2.9
2018-Jan-11 18:30S 05°11' E 011°24'4 3.0
2018-Jan-11 17:17S 05°08' E 011°22'2 2.9
2018-Jan-11 16:33S 05°06' E 011°21'0 2.9
2018-Jan-11 16:30S 05°06' E 011°21'1 2.9
2018-Jan-11 16:00S 05°04' E 011°21'1 2.9
2018-Jan-11 15:29S 05°03' E 011°20'13 1.4
2018-Jan-11 06:26S 05°11' E 011°30'2 3.1
2018-Jan-11 05:49S 05°12' E 011°31'2 3.1
2018-Jan-11 05:03S 05°15' E 011°32'0 3.1
2018-Jan-11 05:00S 05°15' E 011°32'1 1.2
2018-Jan-11 04:30S 05°15' E 011°32'3 6.2
2018-Jan-11 03:57S 05°12' E 011°31'3 6.1
2018-Jan-11 03:30S 05°10' E 011°30'  
Track history (hours):
 
Tides and Currents Weather Stations Pressure Air Temp Water Temp Dewpoint Dewpoint Depression Visibility Wind Speed Wind Dir Waves Ship Positions

Mazagon R

Last reported at 2018-Jan-18 21:34 UTC. Time now 2018-Jan-19 13:34 UTC.
Position S 05°11' E 011°24'.

Length 34 m.

Type: Fishing. MMSI: 224300000.

Date/timePositionNaut miles runAvg speedWind from/ knotsBaromVisibWave heightAir tempDewpointWater temp
2018-Jan-18 21:34S 05°11' E 011°24'0 3.0
2018-Jan-18 21:29S 05°11' E 011°24'1 3.0
2018-Jan-18 21:00S 05°13' E 011°25'1 2.8
2018-Jan-18 20:30S 05°14' E 011°25'2 3.8
2018-Jan-18 19:58S 05°16' E 011°26'0 0.9
2018-Jan-18 19:30S 05°16' E 011°26'0 1.0
2018-Jan-18 19:00S 05°15' E 011°25'1 2.9
2018-Jan-18 18:30S 05°14' E 011°25'1 2.9
2018-Jan-18 17:59S 05°12' E 011°24'1 2.9
2018-Jan-18 17:29S 05°11' E 011°24'1 2.9
2018-Jan-18 16:58S 05°10' E 011°23'1 2.9
2018-Jan-18 16:30S 05°08' E 011°23'2 3.0
2018-Jan-18 15:47S 05°07' E 011°22'  
2018-Jan-11 21:16S 05°16' E 011°26'0 0.4
2018-Jan-11 21:00S 05°16' E 011°26'0 0.1
2018-Jan-11 20:30S 05°16' E 011°26'1 2.9
2018-Jan-11 20:00S 05°15' E 011°26'1 2.9
2018-Jan-11 19:29S 05°14' E 011°25'1 2.9
2018-Jan-11 19:00S 05°12' E 011°24'1 2.9
2018-Jan-11 18:30S 05°11' E 011°24'4 3.0
2018-Jan-11 17:17S 05°08' E 011°22'2 2.9
2018-Jan-11 16:33S 05°06' E 011°21'0 2.9
2018-Jan-11 16:30S 05°06' E 011°21'1 2.9
2018-Jan-11 16:00S 05°04' E 011°21'1 2.9
2018-Jan-11 15:29S 05°03' E 011°20'13 1.4
2018-Jan-11 06:26S 05°11' E 011°30'2 3.1
2018-Jan-11 05:49S 05°12' E 011°31'2 3.1
2018-Jan-11 05:03S 05°15' E 011°32'0 3.1
2018-Jan-11 05:00S 05°15' E 011°32'1 1.2
2018-Jan-11 04:30S 05°15' E 011°32'3 6.2
2018-Jan-11 03:57S 05°12' E 011°31'3 6.1
2018-Jan-11 03:30S 05°10' E 011°30'  

Dump ship's entire track history